RYR4676 LIRN-LIMJ
Flight info
| Callsign | RYR4676 |
|---|---|
| Flight time | 1h 1m |
| Altitude | 38000 |
| Route | EDOPA DCT VEXUV DCT PNZ DCT RIFFI DCT ELB DCT BETEN M729 IDONA |
| Aircraft | B738/M-SDE2E3FGHIRWXY/LB1 |
Departure
| Time | 2026-05-09 05:35 |
|---|---|
| Airport | Naples International Airport (LIRN) |
Arrival
| Time | 2026-05-09 06:37 |
|---|---|
| Airport | Genoa Cristoforo Colombo Airport (LIMJ) |
| Time | Latitude | Longitude | Altitude | Speed | Heading |
|---|---|---|---|---|---|
| 2026-05-09 05:20 | 40.87815 | 14.28040 | 301 ft | 0 kts | 141° |
| 2026-05-09 05:29 | 40.87832 | 14.28022 | 302 ft | 4 kts | 141° |
| 2026-05-09 05:29 | 40.87849 | 14.28004 | 301 ft | 3 kts | 141° |
| 2026-05-09 05:29 | 40.87870 | 14.27990 | 303 ft | 4 kts | 192° |
| 2026-05-09 05:29 | 40.87888 | 14.28006 | 302 ft | 4 kts | 231° |
| 2026-05-09 05:30 | 40.87894 | 14.28015 | 301 ft | 2 kts | 231° |
| 2026-05-09 05:33 | 40.87887 | 14.28004 | 302 ft | 4 kts | 231° |
| 2026-05-09 05:33 | 40.87862 | 14.27963 | 304 ft | 6 kts | 233° |
| 2026-05-09 05:33 | 40.87853 | 14.27910 | 309 ft | 6 kts | 284° |
| 2026-05-09 05:34 | 40.87879 | 14.27868 | 306 ft | 6 kts | 319° |
| 2026-05-09 05:34 | 40.87912 | 14.27832 | 306 ft | 7 kts | 321° |
| 2026-05-09 05:34 | 40.87962 | 14.27783 | 304 ft | 9 kts | 338° |
| 2026-05-09 05:34 | 40.88017 | 14.27833 | 301 ft | 13 kts | 58° |
| 2026-05-09 05:35 | 40.88166 | 14.28147 | 291 ft | 76 kts | 58° |
| 2026-05-09 05:35 | 40.88565 | 14.28994 | 269 ft | 139 kts | 58° |
| 2026-05-09 05:35 | 40.89127 | 14.30211 | 617 ft | 157 kts | 57° |
| 2026-05-09 05:35 | 40.89693 | 14.31433 | 1294 ft | 159 kts | 57° |
| 2026-05-09 05:36 | 40.90294 | 14.32692 | 1896 ft | 167 kts | 58° |
| 2026-05-09 05:36 | 40.90943 | 14.34052 | 2528 ft | 181 kts | 57° |
| 2026-05-09 05:36 | 40.91642 | 14.35503 | 3251 ft | 194 kts | 57° |
| 2026-05-09 05:36 | 40.92381 | 14.37070 | 3861 ft | 206 kts | 57° |
| 2026-05-09 05:37 | 40.93174 | 14.38716 | 4442 ft | 217 kts | 53° |
| 2026-05-09 05:37 | 40.94311 | 14.40014 | 5227 ft | 219 kts | 24° |
| 2026-05-09 05:37 | 40.95794 | 14.40417 | 6068 ft | 221 kts | 356° |
| 2026-05-09 05:37 | 40.97271 | 14.39863 | 6864 ft | 224 kts | 329° |
| 2026-05-09 05:38 | 40.98388 | 14.38480 | 7666 ft | 226 kts | 303° |
| 2026-05-09 05:38 | 40.98910 | 14.36522 | 8484 ft | 229 kts | 276° |
| 2026-05-09 05:38 | 40.98671 | 14.34430 | 9300 ft | 236 kts | 248° |
| 2026-05-09 05:38 | 40.97660 | 14.32707 | 10095 ft | 244 kts | 220° |
| 2026-05-09 05:39 | 40.96220 | 14.31475 | 10766 ft | 252 kts | 215° |
| 2026-05-09 05:39 | 40.94660 | 14.30236 | 11099 ft | 274 kts | 214° |
| 2026-05-09 05:39 | 40.92950 | 14.28865 | 11308 ft | 300 kts | 215° |
| 2026-05-09 05:39 | 40.91121 | 14.27372 | 11509 ft | 326 kts | 215° |
| 2026-05-09 05:40 | 40.89240 | 14.25545 | 11669 ft | 345 kts | 231° |
| 2026-05-09 05:40 | 40.88078 | 14.22757 | 11984 ft | 352 kts | 259° |
| 2026-05-09 05:40 | 40.87968 | 14.19545 | 12655 ft | 352 kts | 279° |
| 2026-05-09 05:40 | 40.88504 | 14.16391 | 13455 ft | 352 kts | 287° |
| 2026-05-09 05:41 | 40.89178 | 14.13273 | 14227 ft | 354 kts | 288° |
| 2026-05-09 05:41 | 40.89883 | 14.10154 | 14951 ft | 355 kts | 288° |
| 2026-05-09 05:41 | 40.90582 | 14.07065 | 15697 ft | 355 kts | 288° |
| 2026-05-09 05:41 | 40.91281 | 14.03934 | 16421 ft | 356 kts | 287° |
| 2026-05-09 05:42 | 40.91973 | 14.00789 | 17126 ft | 358 kts | 287° |
| 2026-05-09 05:42 | 40.92661 | 13.97620 | 17796 ft | 359 kts | 287° |
| 2026-05-09 05:42 | 40.93346 | 13.94437 | 18476 ft | 361 kts | 287° |
| 2026-05-09 05:42 | 40.94030 | 13.91238 | 19044 ft | 362 kts | 287° |
| 2026-05-09 05:43 | 40.94714 | 13.88025 | 19615 ft | 364 kts | 286° |
| 2026-05-09 05:43 | 40.95400 | 13.84792 | 20173 ft | 366 kts | 286° |
| 2026-05-09 05:43 | 40.96089 | 13.81538 | 20718 ft | 368 kts | 286° |
| 2026-05-09 05:43 | 40.96780 | 13.78268 | 21270 ft | 370 kts | 286° |
| 2026-05-09 05:44 | 40.97464 | 13.75023 | 21819 ft | 371 kts | 286° |
| 2026-05-09 05:44 | 40.98160 | 13.71721 | 22348 ft | 373 kts | 286° |
| 2026-05-09 05:44 | 40.98857 | 13.68402 | 22850 ft | 376 kts | 285° |
| 2026-05-09 05:44 | 40.99558 | 13.65063 | 23342 ft | 378 kts | 285° |
| 2026-05-09 05:45 | 41.00262 | 13.61706 | 23805 ft | 380 kts | 285° |
| 2026-05-09 05:45 | 41.00967 | 13.58337 | 24222 ft | 381 kts | 285° |
| 2026-05-09 05:45 | 41.01675 | 13.54950 | 24642 ft | 382 kts | 285° |
| 2026-05-09 05:45 | 41.02440 | 13.51580 | 25027 ft | 384 kts | 291° |
| 2026-05-09 05:46 | 41.03573 | 13.48424 | 25362 ft | 387 kts | 297° |
| 2026-05-09 05:46 | 41.05054 | 13.45424 | 25707 ft | 391 kts | 304° |
| 2026-05-09 05:46 | 41.06715 | 13.42562 | 26092 ft | 393 kts | 305° |
| 2026-05-09 05:46 | 41.08389 | 13.39692 | 26468 ft | 394 kts | 305° |
| 2026-05-09 05:47 | 41.10067 | 13.36811 | 26832 ft | 395 kts | 305° |
| 2026-05-09 05:47 | 41.11748 | 13.33916 | 27183 ft | 397 kts | 305° |
| 2026-05-09 05:47 | 41.13430 | 13.31006 | 27513 ft | 398 kts | 304° |
| 2026-05-09 05:47 | 41.15118 | 13.28078 | 27844 ft | 400 kts | 304° |
| 2026-05-09 05:48 | 41.16805 | 13.25142 | 28165 ft | 401 kts | 304° |
| 2026-05-09 05:48 | 41.18477 | 13.22228 | 28490 ft | 402 kts | 304° |
| 2026-05-09 05:48 | 41.20172 | 13.19268 | 28798 ft | 404 kts | 304° |
| 2026-05-09 05:48 | 41.21872 | 13.16297 | 29164 ft | 404 kts | 304° |
| 2026-05-09 05:49 | 41.23566 | 13.13335 | 29694 ft | 400 kts | 305° |
| 2026-05-09 05:49 | 41.25237 | 13.10411 | 30287 ft | 395 kts | 304° |
| 2026-05-09 05:49 | 41.26895 | 13.07507 | 30679 ft | 394 kts | 304° |
| 2026-05-09 05:49 | 41.28548 | 13.04605 | 30985 ft | 394 kts | 304° |
| 2026-05-09 05:50 | 41.30201 | 13.01700 | 31312 ft | 394 kts | 304° |
| 2026-05-09 05:50 | 41.31827 | 12.98841 | 31697 ft | 391 kts | 304° |
| 2026-05-09 05:50 | 41.33463 | 12.95963 | 32095 ft | 389 kts | 304° |
| 2026-05-09 05:50 | 41.35092 | 12.93094 | 32451 ft | 388 kts | 303° |
| 2026-05-09 05:51 | 41.36717 | 12.90229 | 32770 ft | 387 kts | 303° |
| 2026-05-09 05:51 | 41.38336 | 12.87371 | 33120 ft | 386 kts | 303° |
| 2026-05-09 05:51 | 41.39948 | 12.84524 | 33488 ft | 384 kts | 303° |
| 2026-05-09 05:51 | 41.41555 | 12.81684 | 33831 ft | 383 kts | 303° |
| 2026-05-09 05:52 | 41.43136 | 12.78886 | 34137 ft | 382 kts | 303° |
| 2026-05-09 05:52 | 41.44731 | 12.76062 | 34387 ft | 382 kts | 302° |
| 2026-05-09 05:52 | 41.46335 | 12.73216 | 34535 ft | 385 kts | 302° |
| 2026-05-09 05:52 | 41.47941 | 12.70366 | 34789 ft | 384 kts | 302° |
| 2026-05-09 05:53 | 41.49542 | 12.67523 | 35142 ft | 382 kts | 303° |
| 2026-05-09 05:53 | 41.51130 | 12.64702 | 35483 ft | 379 kts | 303° |
| 2026-05-09 05:53 | 41.52709 | 12.61893 | 35733 ft | 378 kts | 303° |
| 2026-05-09 05:53 | 41.54289 | 12.59079 | 35936 ft | 379 kts | 303° |
| 2026-05-09 05:54 | 41.55867 | 12.56265 | 36157 ft | 379 kts | 303° |
| 2026-05-09 05:54 | 41.57427 | 12.53481 | 36387 ft | 379 kts | 303° |
| 2026-05-09 05:54 | 41.59002 | 12.50668 | 36628 ft | 378 kts | 303° |
| 2026-05-09 05:54 | 41.60574 | 12.47858 | 36883 ft | 377 kts | 303° |
| 2026-05-09 05:55 | 41.62143 | 12.45051 | 37125 ft | 376 kts | 303° |
| 2026-05-09 05:55 | 41.63710 | 12.42245 | 37276 ft | 377 kts | 303° |
| 2026-05-09 05:55 | 41.65281 | 12.39427 | 37422 ft | 379 kts | 303° |
| 2026-05-09 05:55 | 41.66860 | 12.36593 | 37565 ft | 380 kts | 303° |
| 2026-05-09 05:56 | 41.68437 | 12.33762 | 37806 ft | 379 kts | 303° |
| 2026-05-09 05:56 | 41.70008 | 12.30939 | 38042 ft | 378 kts | 303° |
| 2026-05-09 05:56 | 41.73137 | 12.25303 | 38108 ft | 381 kts | 303° |
| 2026-05-09 05:57 | 41.76285 | 12.19628 | 38124 ft | 378 kts | 303° |
| 2026-05-09 05:57 | 41.79409 | 12.13985 | 38188 ft | 376 kts | 303° |
| 2026-05-09 05:58 | 41.82495 | 12.08399 | 38201 ft | 374 kts | 303° |
| 2026-05-09 05:58 | 41.85583 | 12.02800 | 38204 ft | 373 kts | 302° |
| 2026-05-09 05:59 | 41.88665 | 11.97199 | 38197 ft | 373 kts | 302° |
| 2026-05-09 05:59 | 41.91750 | 11.91584 | 38179 ft | 374 kts | 302° |
| 2026-05-09 06:00 | 41.94841 | 11.85947 | 38166 ft | 376 kts | 302° |
| 2026-05-09 06:00 | 41.97942 | 11.80279 | 38148 ft | 381 kts | 302° |
| 2026-05-09 06:01 | 42.01086 | 11.74523 | 38149 ft | 383 kts | 302° |
| 2026-05-09 06:01 | 42.04247 | 11.68727 | 38111 ft | 384 kts | 302° |
| 2026-05-09 06:02 | 42.07409 | 11.62919 | 38093 ft | 385 kts | 302° |
| 2026-05-09 06:02 | 42.10542 | 11.57153 | 38091 ft | 384 kts | 302° |
| 2026-05-09 06:03 | 42.13686 | 11.51354 | 38090 ft | 383 kts | 302° |
| 2026-05-09 06:03 | 42.16819 | 11.45563 | 38088 ft | 382 kts | 302° |
| 2026-05-09 06:04 | 42.19942 | 11.39782 | 38085 ft | 381 kts | 302° |
| 2026-05-09 06:04 | 42.23032 | 11.34048 | 38092 ft | 380 kts | 302° |
| 2026-05-09 06:05 | 42.26136 | 11.28280 | 38095 ft | 380 kts | 301° |
| 2026-05-09 06:05 | 42.29237 | 11.22504 | 38088 ft | 379 kts | 301° |
| 2026-05-09 06:06 | 42.32329 | 11.16735 | 38094 ft | 379 kts | 301° |
| 2026-05-09 06:06 | 42.35394 | 11.11005 | 38095 ft | 379 kts | 301° |
| 2026-05-09 06:07 | 42.38476 | 11.05232 | 38092 ft | 378 kts | 301° |
| 2026-05-09 06:07 | 42.41641 | 10.99534 | 38081 ft | 382 kts | 307° |
| 2026-05-09 06:08 | 42.45751 | 10.94841 | 38101 ft | 391 kts | 317° |
| 2026-05-09 06:08 | 42.50200 | 10.90600 | 38106 ft | 391 kts | 317° |
| 2026-05-09 06:09 | 42.54617 | 10.86372 | 38093 ft | 391 kts | 317° |
| 2026-05-09 06:09 | 42.59052 | 10.82096 | 38084 ft | 391 kts | 317° |
| 2026-05-09 06:10 | 42.63479 | 10.77810 | 38086 ft | 391 kts | 317° |
| 2026-05-09 06:10 | 42.67897 | 10.73520 | 38087 ft | 390 kts | 317° |
| 2026-05-09 06:11 | 42.72285 | 10.69251 | 38087 ft | 390 kts | 317° |
| 2026-05-09 06:11 | 42.76699 | 10.64948 | 38099 ft | 391 kts | 317° |
| 2026-05-09 06:12 | 42.81116 | 10.60637 | 38083 ft | 390 kts | 317° |
| 2026-05-09 06:12 | 42.83303 | 10.58503 | 37902 ft | 383 kts | 317° |
| 2026-05-09 06:12 | 42.85433 | 10.56424 | 37295 ft | 381 kts | 317° |
| 2026-05-09 06:13 | 42.87598 | 10.54301 | 36544 ft | 385 kts | 316° |
| 2026-05-09 06:13 | 42.89777 | 10.52160 | 35848 ft | 387 kts | 316° |
| 2026-05-09 06:13 | 42.91967 | 10.50009 | 35187 ft | 389 kts | 316° |
| 2026-05-09 06:13 | 42.94165 | 10.47848 | 34537 ft | 390 kts | 316° |
| 2026-05-09 06:14 | 42.96376 | 10.45674 | 33888 ft | 392 kts | 316° |
| 2026-05-09 06:14 | 42.98586 | 10.43501 | 33172 ft | 392 kts | 317° |
| 2026-05-09 06:14 | 43.00808 | 10.41311 | 32348 ft | 395 kts | 317° |
| 2026-05-09 06:14 | 43.03046 | 10.39103 | 31484 ft | 399 kts | 318° |
| 2026-05-09 06:15 | 43.05279 | 10.36898 | 30683 ft | 403 kts | 318° |
| 2026-05-09 06:15 | 43.07548 | 10.34659 | 30030 ft | 401 kts | 319° |
| 2026-05-09 06:15 | 43.09805 | 10.32434 | 29340 ft | 398 kts | 319° |
| 2026-05-09 06:15 | 43.12042 | 10.30225 | 28693 ft | 395 kts | 319° |
| 2026-05-09 06:16 | 43.14261 | 10.28032 | 28060 ft | 392 kts | 319° |
| 2026-05-09 06:16 | 43.16453 | 10.25863 | 27533 ft | 386 kts | 319° |
| 2026-05-09 06:16 | 43.18621 | 10.23715 | 27038 ft | 382 kts | 319° |
| 2026-05-09 06:16 | 43.20760 | 10.21592 | 26537 ft | 378 kts | 319° |
| 2026-05-09 06:17 | 43.22884 | 10.19481 | 26008 ft | 376 kts | 319° |
| 2026-05-09 06:17 | 43.24963 | 10.17413 | 25505 ft | 373 kts | 319° |
| 2026-05-09 06:17 | 43.27063 | 10.15321 | 25008 ft | 374 kts | 319° |
| 2026-05-09 06:17 | 43.29177 | 10.13212 | 24522 ft | 378 kts | 319° |
| 2026-05-09 06:18 | 43.31310 | 10.11082 | 24043 ft | 379 kts | 320° |
| 2026-05-09 06:18 | 43.33483 | 10.09031 | 23532 ft | 379 kts | 322° |
| 2026-05-09 06:18 | 43.35697 | 10.07083 | 22929 ft | 377 kts | 323° |
| 2026-05-09 06:18 | 43.37917 | 10.05172 | 22354 ft | 376 kts | 323° |
| 2026-05-09 06:19 | 43.40130 | 10.03270 | 21826 ft | 374 kts | 323° |
| 2026-05-09 06:19 | 43.42292 | 10.01403 | 21323 ft | 371 kts | 323° |
| 2026-05-09 06:19 | 43.44469 | 9.99511 | 20821 ft | 369 kts | 323° |
| 2026-05-09 06:19 | 43.46632 | 9.97621 | 20323 ft | 367 kts | 323° |
| 2026-05-09 06:20 | 43.48781 | 9.95737 | 19835 ft | 366 kts | 323° |
| 2026-05-09 06:20 | 43.50921 | 9.93854 | 19357 ft | 364 kts | 323° |
| 2026-05-09 06:20 | 43.53049 | 9.91978 | 18887 ft | 363 kts | 323° |
| 2026-05-09 06:20 | 43.55174 | 9.90102 | 18425 ft | 362 kts | 323° |
| 2026-05-09 06:21 | 43.57291 | 9.88233 | 17898 ft | 361 kts | 323° |
| 2026-05-09 06:21 | 43.59403 | 9.86364 | 17372 ft | 360 kts | 324° |
| 2026-05-09 06:21 | 43.61508 | 9.84501 | 16888 ft | 359 kts | 324° |
| 2026-05-09 06:21 | 43.63577 | 9.82668 | 16426 ft | 357 kts | 324° |
| 2026-05-09 06:22 | 43.65664 | 9.80818 | 15979 ft | 356 kts | 324° |
| 2026-05-09 06:22 | 43.67743 | 9.78974 | 15530 ft | 355 kts | 324° |
| 2026-05-09 06:22 | 43.69819 | 9.77130 | 15094 ft | 354 kts | 324° |
| 2026-05-09 06:22 | 43.71887 | 9.75292 | 14665 ft | 353 kts | 325° |
| 2026-05-09 06:23 | 43.73955 | 9.73453 | 14238 ft | 353 kts | 325° |
| 2026-05-09 06:23 | 43.76016 | 9.71617 | 13808 ft | 352 kts | 325° |
| 2026-05-09 06:23 | 43.78076 | 9.69783 | 13327 ft | 352 kts | 325° |
| 2026-05-09 06:23 | 43.80129 | 9.67952 | 12858 ft | 351 kts | 325° |
| 2026-05-09 06:24 | 43.82154 | 9.66145 | 12402 ft | 351 kts | 326° |
| 2026-05-09 06:24 | 43.84205 | 9.64314 | 11954 ft | 349 kts | 326° |
| 2026-05-09 06:24 | 43.86233 | 9.62501 | 11505 ft | 345 kts | 326° |
| 2026-05-09 06:24 | 43.88242 | 9.60704 | 11063 ft | 342 kts | 326° |
| 2026-05-09 06:25 | 43.90234 | 9.58921 | 10673 ft | 338 kts | 326° |
| 2026-05-09 06:25 | 43.92164 | 9.57194 | 10613 ft | 324 kts | 326° |
| 2026-05-09 06:25 | 43.94021 | 9.55530 | 10523 ft | 311 kts | 326° |
| 2026-05-09 06:25 | 43.95805 | 9.53930 | 10439 ft | 300 kts | 325° |
| 2026-05-09 06:26 | 43.97525 | 9.52386 | 10317 ft | 291 kts | 325° |
| 2026-05-09 06:26 | 43.99187 | 9.50892 | 10070 ft | 288 kts | 325° |
| 2026-05-09 06:26 | 44.00868 | 9.49379 | 9702 ft | 288 kts | 326° |
| 2026-05-09 06:26 | 44.02543 | 9.47870 | 9358 ft | 287 kts | 326° |
| 2026-05-09 06:27 | 44.04211 | 9.46368 | 9067 ft | 284 kts | 326° |
| 2026-05-09 06:27 | 44.05862 | 9.44880 | 8810 ft | 282 kts | 326° |
| 2026-05-09 06:27 | 44.07513 | 9.43391 | 8556 ft | 283 kts | 326° |
| 2026-05-09 06:27 | 44.09166 | 9.41898 | 8307 ft | 284 kts | 326° |
| 2026-05-09 06:28 | 44.10819 | 9.40405 | 8057 ft | 283 kts | 326° |
| 2026-05-09 06:28 | 44.12448 | 9.38933 | 7810 ft | 283 kts | 326° |
| 2026-05-09 06:28 | 44.14096 | 9.37443 | 7564 ft | 282 kts | 326° |
| 2026-05-09 06:28 | 44.15743 | 9.35953 | 7328 ft | 281 kts | 326° |
| 2026-05-09 06:29 | 44.17371 | 9.34479 | 7056 ft | 279 kts | 327° |
| 2026-05-09 06:29 | 44.18994 | 9.33008 | 6748 ft | 278 kts | 327° |
| 2026-05-09 06:29 | 44.20612 | 9.31542 | 6479 ft | 277 kts | 327° |
| 2026-05-09 06:29 | 44.22201 | 9.30099 | 6377 ft | 267 kts | 327° |
| 2026-05-09 06:30 | 44.23727 | 9.28705 | 6271 ft | 258 kts | 326° |
| 2026-05-09 06:30 | 44.25196 | 9.27369 | 6112 ft | 252 kts | 326° |
| 2026-05-09 06:30 | 44.26640 | 9.26044 | 6008 ft | 244 kts | 326° |
| 2026-05-09 06:30 | 44.28021 | 9.24772 | 5970 ft | 230 kts | 326° |
| 2026-05-09 06:31 | 44.29322 | 9.23556 | 5821 ft | 222 kts | 322° |
| 2026-05-09 06:31 | 44.30539 | 9.22256 | 5558 ft | 220 kts | 321° |
| 2026-05-09 06:31 | 44.31750 | 9.20959 | 5274 ft | 219 kts | 322° |
| 2026-05-09 06:31 | 44.32950 | 9.19675 | 5036 ft | 215 kts | 321° |
| 2026-05-09 06:32 | 44.33873 | 9.18107 | 4841 ft | 207 kts | 292° |
| 2026-05-09 06:32 | 44.34339 | 9.16237 | 4571 ft | 207 kts | 285° |
| 2026-05-09 06:32 | 44.34731 | 9.14324 | 4349 ft | 204 kts | 285° |
| 2026-05-09 06:33 | 44.35529 | 9.10535 | 3830 ft | 203 kts | 286° |
| 2026-05-09 06:33 | 44.35953 | 9.08646 | 3565 ft | 205 kts | 287° |
| 2026-05-09 06:33 | 44.36380 | 9.06739 | 3261 ft | 205 kts | 287° |
| 2026-05-09 06:34 | 44.37202 | 9.03005 | 2726 ft | 199 kts | 288° |
| 2026-05-09 06:34 | 44.37604 | 9.01190 | 2400 ft | 198 kts | 288° |
| 2026-05-09 06:34 | 44.38024 | 8.99367 | 2091 ft | 197 kts | 289° |
| 2026-05-09 06:34 | 44.38441 | 8.97579 | 1776 ft | 189 kts | 289° |
| 2026-05-09 06:35 | 44.38817 | 8.95885 | 1555 ft | 175 kts | 289° |
| 2026-05-09 06:35 | 44.39167 | 8.94323 | 1346 ft | 159 kts | 289° |
| 2026-05-09 06:35 | 44.39478 | 8.92874 | 1122 ft | 153 kts | 287° |
| 2026-05-09 06:35 | 44.39764 | 8.91446 | 909 ft | 152 kts | 287° |
| 2026-05-09 06:36 | 44.40049 | 8.90030 | 685 ft | 150 kts | 287° |
| 2026-05-09 06:36 | 44.40318 | 8.88638 | 478 ft | 150 kts | 287° |
| 2026-05-09 06:36 | 44.40597 | 8.87232 | 284 ft | 151 kts | 288° |
| 2026-05-09 06:36 | 44.40874 | 8.85807 | 59 ft | 152 kts | 288° |
| 2026-05-09 06:37 | 44.41121 | 8.84561 | 20 ft | 85 kts | 285° |
| 2026-05-09 06:37 | 44.41231 | 8.84004 | 20 ft | 39 kts | 285° |
| 2026-05-09 06:37 | 44.41288 | 8.83820 | 19 ft | 16 kts | 312° |
| 2026-05-09 06:37 | 44.41367 | 8.83744 | 17 ft | 13 kts | 355° |
| 2026-05-09 06:38 | 44.41420 | 8.83823 | 18 ft | 13 kts | 96° |
| 2026-05-09 06:38 | 44.41396 | 8.83950 | 19 ft | 18 kts | 105° |
| 2026-05-09 06:38 | 44.41359 | 8.84138 | 15 ft | 21 kts | 105° |
| 2026-05-09 06:38 | 44.41323 | 8.84323 | 17 ft | 13 kts | 106° |
| 2026-05-09 06:39 | 44.41330 | 8.84432 | 18 ft | 12 kts | 56° |
| 2026-05-09 06:39 | 44.41379 | 8.84525 | 17 ft | 13 kts | 53° |
| 2026-05-09 06:39 | 44.41435 | 8.84627 | 17 ft | 13 kts | 52° |
| 2026-05-09 06:39 | 44.41488 | 8.84725 | 17 ft | 12 kts | 52° |
| 2026-05-09 06:40 | 44.41512 | 8.84810 | 17 ft | 8 kts | 101° |
| 2026-05-09 06:40 | 44.41500 | 8.84869 | 19 ft | 5 kts | 105° |
| 2026-05-09 06:40 | 44.41494 | 8.84902 | 17 ft | 1 kts | 105° |